Weather at Kamal Bazar Airport

Public forecast

Using degrees Celsius for public forecast. Weather courtesy of forecast.io.

Closest aviation weather report (METAR) to Kamal Bazar Airport

Report is more than 6 hours old.

Closest report is Pantnagar Airport, 98.1 nm (181.7 km) W. Retrieved 2020/09/22 07:00 UTC (17 hours ago):

VIPT 220700Z 18003KT 6000 FEW030 35/24 Q1003

Closest aviation forecast (TAF) to Kamal Bazar Airport

Forecast is more than 12 hours old.

Closest forecast is Pantnagar Airport, 98.1 nm (181.7 km) W. Retrieved 2016/07/10 06:00 UTC (4 years ago):

TAF VIPT 100500Z 1006/1015 24005KT 4000 HZ FEW040 SCT100 TEMPO 1010/1015 2000 -TSRA SCT030 FEW035CB BKN090